Time;durP1;ratioP1;P1;durP2;ratioP2;P2;SDS_P1;SDS_P2;PMS_P1;PMS_P2;Temp;Humidity;BMP_temperature;BMP_pressure;BME280_temperature;BME280_humidity;BME280_pressure;Samples;Min_cycle;Max_cycle;Signal;HPM_P1;HPM_P2
2022/07/26 00:02:06;;;;;;;3.87;2.50;;;24.40;72.10;;;;;;21007642;28;20211;-70
2022/07/26 00:12:09;;;;;;;8.83;3.20;;;24.40;71.30;;;;;;21006952;28;20227;-71
2022/07/26 00:32:49;;;;;;;5.37;2.93;;;24.40;70.50;;;;;;21086191;28;20226;-72
2022/07/26 00:42:51;;;;;;;5.97;2.40;;;24.40;70.50;;;;;;21088381;28;20233;-69
2022/07/26 00:52:53;;;;;;;8.97;2.63;;;24.40;70.30;;;;;;21069998;28;20652;-70
2022/07/26 01:02:57;;;;;;;6.43;3.07;;;24.50;69.80;;;;;;21086745;28;20209;-73
2022/07/26 01:12:59;;;;;;;4.80;2.60;;;24.40;69.40;;;;;;21085978;28;20235;-72
2022/07/26 01:23:01;;;;;;;5.60;2.43;;;24.30;69.70;;;;;;21085584;28;20209;-70
2022/07/26 01:33:02;;;;;;;5.93;2.23;;;24.10;70.00;;;;;;21084506;28;20227;-73
2022/07/26 01:43:07;;;;;;;17.03;2.90;;;24.00;70.20;;;;;;21083331;28;20227;-68
2022/07/26 01:53:09;;;;;;;11.10;2.70;;;23.80;70.80;;;;;;21083244;28;20233;-70
2022/07/26 02:03:11;;;;;;;5.07;2.77;;;23.80;71.30;;;;;;21082266;28;20212;-72
2022/07/26 02:13:13;;;;;;;7.90;2.70;;;23.60;72.20;;;;;;21081528;28;20594;-71
2022/07/26 02:23:14;;;;;;;5.03;2.83;;;23.50;73.00;;;;;;21031558;28;20215;-70
2022/07/26 02:33:17;;;;;;;5.30;2.53;;;23.40;73.60;;;;;;20993053;28;20254;-71
2022/07/26 02:43:19;;;;;;;4.47;2.57;;;23.30;73.90;;;;;;20995585;28;20227;-70
2022/07/26 02:53:21;;;;;;;5.37;2.87;;;23.10;74.10;;;;;;20995101;28;20241;-69
2022/07/26 03:03:22;;;;;;;8.67;2.97;;;23.00;74.40;;;;;;20994973;28;20210;-70
2022/07/26 03:13:24;;;;;;;5.00;2.90;;;22.80;75.10;;;;;;20994360;28;20245;-71
2022/07/26 03:23:26;;;;;;;8.50;3.47;;;22.60;75.80;;;;;;20994536;28;20199;-70
2022/07/26 03:33:28;;;;;;;9.53;3.20;;;22.50;76.70;;;;;;20993635;28;20230;-71
2022/07/26 03:43:30;;;;;;;4.60;3.00;;;22.30;77.60;;;;;;20993140;28;20238;-71
2022/07/26 03:53:36;;;;;;;8.33;3.33;;;22.20;78.60;;;;;;20993441;28;20667;-72
2022/07/26 04:03:39;;;;;;;3.97;2.93;;;22.10;79.40;;;;;;20993686;28;20682;-72
2022/07/26 04:13:47;;;;;;;5.13;3.13;;;22.00;80.20;;;;;;21007194;28;20589;-70
2022/07/26 04:23:50;;;;;;;7.67;3.50;;;21.90;81.00;;;;;;21005467;28;20210;-69
2022/07/26 04:33:52;;;;;;;22.73;3.67;;;21.80;81.30;;;;;;21002989;28;20240;-69
2022/07/26 04:43:55;;;;;;;8.60;3.53;;;21.80;82.00;;;;;;21004739;28;20238;-72
2022/07/26 04:53:56;;;;;;;24.83;4.30;;;21.90;82.30;;;;;;21002751;28;20237;-72
2022/07/26 05:03:58;;;;;;;12.70;3.67;;;21.80;82.70;;;;;;21001972;28;20219;-74
2022/07/26 05:14:00;;;;;;;11.10;4.10;;;21.80;82.90;;;;;;21001966;28;20239;-74
2022/07/26 05:24:01;;;;;;;15.20;4.13;;;21.90;83.40;;;;;;21001752;28;20212;-72
2022/07/26 05:34:08;;;;;;;18.83;4.70;;;22.00;83.20;;;;;;20999943;28;20321;-74
2022/07/26 05:44:10;;;;;;;7.73;4.00;;;21.90;83.00;;;;;;20998790;28;20265;-72
2022/07/26 05:54:12;;;;;;;8.70;3.90;;;21.90;83.30;;;;;;20998204;28;20238;-74
2022/07/26 06:04:14;;;;;;;16.97;5.20;;;22.00;83.00;;;;;;20997343;28;20206;-73
2022/07/26 06:14:16;;;;;;;16.23;4.00;;;22.00;82.80;;;;;;20996240;28;20231;-74
2022/07/26 06:24:17;;;;;;;11.20;3.67;;;22.10;82.90;;;;;;20992551;28;20213;-72
2022/07/26 06:34:19;;;;;;;9.63;3.30;;;22.30;82.30;;;;;;20992269;28;20235;-74
2022/07/26 06:44:21;;;;;;;7.83;2.80;;;22.60;81.10;;;;;;20993913;28;20233;-72
2022/07/26 06:54:23;;;;;;;7.40;2.63;;;22.80;79.40;;;;;;20992807;28;20722;-73
2022/07/26 07:04:25;;;;;;;7.87;2.60;;;23.10;77.40;;;;;;20989644;28;20207;-73
2022/07/26 07:14:27;;;;;;;6.87;2.73;;;23.40;75.40;;;;;;20990229;28;20325;-74
2022/07/26 07:24:29;;;;;;;5.00;2.27;;;23.50;73.40;;;;;;20989478;28;20563;-72
2022/07/26 07:34:32;;;;;;;5.20;2.53;;;23.70;71.00;;;;;;20991866;28;20322;-73
2022/07/26 07:44:34;;;;;;;7.33;3.13;;;23.90;70.00;;;;;;21003366;28;20238;-72
2022/07/26 07:54:35;;;;;;;12.57;3.07;;;23.90;68.80;;;;;;21006945;28;20235;-72
2022/07/26 08:04:37;;;;;;;10.17;2.20;;;23.90;68.10;;;;;;21005939;28;20286;-71
2022/07/26 08:14:39;;;;;;;4.10;2.10;;;23.90;66.10;;;;;;21004794;28;20327;-72
2022/07/26 08:24:44;;;;;;;6.90;1.83;;;24.00;65.00;;;;;;21003705;28;20659;-70
2022/07/26 08:34:46;;;;;;;8.23;2.30;;;24.20;63.60;;;;;;21002333;28;20239;-73
2022/07/26 08:44:48;;;;;;;6.37;2.00;;;24.20;60.70;;;;;;21003358;28;20275;-73
2022/07/26 08:54:51;;;;;;;8.90;2.00;;;24.20;60.60;;;;;;21001350;28;20235;-72
2022/07/26 09:05:03;;;;;;;7.33;1.80;;;24.30;60.50;;;;;;21001805;28;20604;-73
2022/07/26 09:15:15;;;;;;;4.03;1.40;;;24.40;59.50;;;;;;21000845;28;20246;-72
2022/07/26 09:25:22;;;;;;;4.83;1.57;;;24.40;57.90;;;;;;20999716;28;20248;-73
2022/07/26 09:35:24;;;;;;;7.77;1.50;;;24.40;56.90;;;;;;20999804;28;20245;-72
2022/07/26 09:46:02;;;;;;;2.00;1.10;;;24.30;56.40;;;;;;20998243;28;20234;-71
2022/07/26 09:56:04;;;;;;;3.37;1.30;;;24.50;56.70;;;;;;20996909;28;20234;-71
2022/07/26 10:06:06;;;;;;;2.43;1.13;;;24.90;56.20;;;;;;20996535;28;20209;-71
2022/07/26 10:16:28;;;;;;;3.77;1.20;;;25.10;56.10;;;;;;20996396;28;20590;-72
2022/07/26 10:26:31;;;;;;;1.83;1.20;;;25.10;55.70;;;;;;20992865;28;20235;-72
2022/07/26 10:36:38;;;;;;;2.77;1.20;;;25.20;55.30;;;;;;21007549;28;20241;-72
2022/07/26 10:47:08;;;;;;;1.13;1.00;;;25.10;53.60;;;;;;20993840;28;20241;-72
2022/07/26 10:57:09;;;;;;;1.90;1.10;;;25.10;53.50;;;;;;20993725;28;20285;-74
2022/07/26 11:07:11;;;;;;;4.00;1.50;;;25.20;52.00;;;;;;20992174;28;20229;-73
2022/07/26 11:17:27;;;;;;;4.13;1.30;;;25.40;51.80;;;;;;21000501;28;20242;-73
2022/07/26 11:27:29;;;;;;;6.40;1.30;;;25.10;51.50;;;;;;21007970;28;20680;-73
2022/07/26 11:37:31;;;;;;;6.50;1.30;;;25.00;52.00;;;;;;21008952;28;20782;-72
2022/07/26 11:47:33;;;;;;;5.00;1.70;;;24.80;51.60;;;;;;21008042;28;20592;-72
2022/07/26 11:57:35;;;;;;;5.53;1.40;;;24.80;51.40;;;;;;21007270;28;20257;-74
2022/07/26 12:07:37;;;;;;;11.77;2.37;;;25.00;51.90;;;;;;21041287;28;20199;-72
2022/07/26 12:17:57;;;;;;;6.17;1.37;;;25.20;50.50;;;;;;21011565;28;20242;-74
2022/07/26 12:27:59;;;;;;;5.53;1.33;;;25.90;49.70;;;;;;21138973;28;20210;-71
2022/07/26 12:38:01;;;;;;;2.10;1.30;;;26.40;49.70;;;;;;21171113;28;20241;-73
2022/07/26 12:48:09;;;;;;;5.90;1.30;;;26.90;48.10;;;;;;21170802;28;20237;-71
2022/07/26 12:58:11;;;;;;;3.90;1.43;;;26.70;48.20;;;;;;21170390;28;20230;-74
2022/07/26 13:08:13;;;;;;;2.77;1.30;;;26.70;49.00;;;;;;21169744;28;20224;-71
2022/07/26 13:18:14;;;;;;;1.70;1.30;;;26.60;48.90;;;;;;21169001;28;20240;-73
2022/07/26 13:28:16;;;;;;;2.90;1.57;;;26.70;47.60;;;;;;21167884;28;20197;-73
2022/07/26 13:38:19;;;;;;;4.17;1.30;;;26.80;47.20;;;;;;21166581;28;20591;-72
2022/07/26 13:48:20;;;;;;;6.77;1.70;;;26.90;47.50;;;;;;21166876;28;20229;-77
2022/07/26 13:58:22;;;;;;;6.40;3.73;;;26.90;47.50;;;;;;21148063;28;20237;-74
2022/07/26 14:08:24;;;;;;;6.17;1.50;;;26.60;47.10;;;;;;21165686;28;20225;-76
2022/07/26 14:18:25;;;;;;;5.83;1.80;;;26.70;46.90;;;;;;21164810;28;20317;-75
2022/07/26 14:28:27;;;;;;;4.40;1.23;;;26.50;47.90;;;;;;21047251;28;20207;-72
2022/07/26 14:38:29;;;;;;;3.23;1.70;;;26.80;48.60;;;;;;20994300;28;20227;-73
2022/07/26 14:48:31;;;;;;;4.30;1.50;;;27.00;48.30;;;;;;20994117;28;20236;-72
2022/07/26 14:58:52;;;;;;;9.00;1.60;;;26.70;48.70;;;;;;20993839;28;20239;-74
2022/07/26 15:08:54;;;;;;;2.07;1.20;;;26.50;48.90;;;;;;20993789;28;20210;-72
2022/07/26 15:18:56;;;;;;;2.07;1.40;;;26.10;48.90;;;;;;20993250;28;20237;-74
2022/07/26 15:28:57;;;;;;;3.00;1.60;;;26.00;48.60;;;;;;20993809;28;20234;-76
2022/07/26 15:38:59;;;;;;;5.93;1.57;;;26.30;48.70;;;;;;20993092;28;20238;-71
2022/07/26 15:49:17;;;;;;;1.90;1.20;;;26.40;49.00;;;;;;20993233;28;20239;-75
2022/07/26 15:59:19;;;;;;;4.07;2.00;;;26.60;48.30;;;;;;20994684;28;20239;-71
2022/07/26 16:09:21;;;;;;;7.03;1.57;;;26.60;48.00;;;;;;21007417;28;20215;-75
2022/07/26 16:19:22;;;;;;;4.80;1.60;;;26.60;48.70;;;;;;21007020;28;20235;-72
2022/07/26 16:29:24;;;;;;;3.43;1.57;;;26.50;49.30;;;;;;21002844;28;20207;-75
2022/07/26 16:39:26;;;;;;;2.47;1.30;;;26.30;50.80;;;;;;21003347;28;20231;-72
2022/07/26 16:49:28;;;;;;;2.93;1.40;;;26.00;50.60;;;;;;21004830;28;20666;-73
2022/07/26 16:59:30;;;;;;;1.33;1.20;;;26.00;50.90;;;;;;21003704;28;20623;-74
2022/07/26 17:09:32;;;;;;;6.00;1.60;;;25.80;51.00;;;;;;21003096;28;20215;-76
2022/07/26 17:19:33;;;;;;;2.37;1.50;;;25.80;51.40;;;;;;21001981;28;20215;-75
2022/07/26 17:29:35;;;;;;;4.97;1.50;;;25.70;51.70;;;;;;21003904;28;20214;-71
2022/07/26 17:39:37;;;;;;;4.50;1.50;;;25.50;51.90;;;;;;21000092;28;20583;-76
2022/07/26 17:49:53;;;;;;;3.00;1.47;;;25.60;52.20;;;;;;21000356;28;20654;-74
2022/07/26 17:59:55;;;;;;;4.67;1.50;;;25.50;51.90;;;;;;20998197;28;20211;-70
2022/07/26 18:09:57;;;;;;;4.77;1.90;;;25.40;52.00;;;;;;20997660;28;20204;-70
2022/07/26 18:19:58;;;;;;;4.10;1.60;;;25.20;52.50;;;;;;20995978;28;20282;-71
2022/07/26 18:30:02;;;;;;;3.60;1.60;;;24.90;53.10;;;;;;20991148;28;20742;-70
2022/07/26 18:40:04;;;;;;;2.27;1.30;;;24.70;53.40;;;;;;20993255;28;20237;-71
2022/07/26 18:50:08;;;;;;;1.67;1.50;;;24.70;53.80;;;;;;21006433;28;20227;-71
2022/07/26 19:00:15;;;;;;;7.47;1.80;;;24.70;54.00;;;;;;20997335;28;20215;-71
2022/07/26 19:10:18;;;;;;;4.10;1.90;;;24.60;54.40;;;;;;21054676;28;20227;-71
2022/07/26 19:20:20;;;;;;;5.10;1.70;;;24.40;55.00;;;;;;21075552;28;20202;-72
2022/07/26 19:30:22;;;;;;;3.20;2.13;;;24.40;55.40;;;;;;21057387;28;20234;-70
2022/07/26 19:40:24;;;;;;;1.80;1.70;;;24.20;55.60;;;;;;21077436;28;20219;-72
2022/07/26 19:50:26;;;;;;;3.47;1.77;;;24.30;55.70;;;;;;21007127;28;20232;-70
2022/07/26 20:00:28;;;;;;;6.13;2.63;;;24.30;56.90;;;;;;21006131;28;20199;-70
2022/07/26 20:10:29;;;;;;;2.73;1.63;;;24.20;57.20;;;;;;21007813;28;20227;-72
2022/07/26 20:20:33;;;;;;;7.83;2.63;;;24.10;57.70;;;;;;21167475;28;20286;-71
2022/07/26 20:30:35;;;;;;;5.40;2.63;;;24.00;58.30;;;;;;21171381;28;20730;-72
2022/07/26 20:40:37;;;;;;;5.70;2.33;;;24.00;58.10;;;;;;21170866;28;20279;-69
2022/07/26 20:50:39;;;;;;;4.93;2.80;;;23.80;58.00;;;;;;21169259;28;20230;-71
2022/07/26 21:00:41;;;;;;;4.87;3.30;;;23.80;58.30;;;;;;21166723;28;20579;-71
2022/07/26 21:10:46;;;;;;;4.17;3.00;;;23.70;58.90;;;;;;21168198;28;20234;-70
2022/07/26 21:20:48;;;;;;;4.97;3.33;;;23.70;59.20;;;;;;21168074;28;20208;-70
2022/07/26 21:30:49;;;;;;;9.90;6.33;;;23.70;59.50;;;;;;21166842;28;20226;-70
2022/07/26 21:40:51;;;;;;;9.87;3.70;;;23.60;60.30;;;;;;21166046;28;20248;-72
2022/07/26 21:50:53;;;;;;;3.50;2.97;;;23.60;60.10;;;;;;21167291;28;20594;-71
2022/07/26 22:01:02;;;;;;;7.27;2.73;;;23.50;60.30;;;;;;21166550;28;20206;-71
2022/07/26 22:11:07;;;;;;;4.20;2.90;;;23.40;60.50;;;;;;21164905;28;20248;-71
2022/07/26 22:21:10;;;;;;;3.80;3.03;;;23.10;60.70;;;;;;21023925;28;20203;-72
2022/07/26 22:31:12;;;;;;;4.30;2.80;;;23.00;61.10;;;;;;20994369;28;20591;-72
2022/07/26 22:41:13;;;;;;;4.83;2.93;;;22.90;61.50;;;;;;20995959;28;20731;-71
2022/07/26 22:51:15;;;;;;;3.53;3.20;;;22.70;61.80;;;;;;20995624;28;20573;-71
2022/07/26 23:01:17;;;;;;;4.23;2.90;;;22.70;62.20;;;;;;20995691;28;20587;-71
2022/07/26 23:11:19;;;;;;;4.93;3.20;;;22.60;62.50;;;;;;20993961;28;20246;-71
2022/07/26 23:21:21;;;;;;;3.23;2.90;;;22.50;62.90;;;;;;20994519;28;20655;-72
2022/07/26 23:31:22;;;;;;;6.73;2.90;;;22.40;63.30;;;;;;20994312;28;20717;-72
2022/07/26 23:41:25;;;;;;;4.80;3.13;;;22.30;63.80;;;;;;20993373;28;20254;-71
2022/07/26 23:51:27;;;;;;;7.73;2.80;;;22.20;64.40;;;;;;20993214;28;20235;-72
